createdAt,value
2019-06-10T00:02:03.795Z,23.90
2019-06-10T00:04:34.014Z,23.90
2019-06-10T00:07:05.817Z,23.80
2019-06-10T00:09:36.403Z,23.90
2019-06-10T00:12:08.138Z,23.90
2019-06-10T00:14:38.918Z,23.90
2019-06-10T00:17:11.012Z,23.90
2019-06-10T00:19:41.224Z,23.90
2019-06-10T00:22:11.966Z,24.00
2019-06-10T00:24:42.420Z,24.00
2019-06-10T00:27:12.786Z,23.90
2019-06-10T00:29:43.082Z,23.90
2019-06-10T00:32:13.567Z,23.80
2019-06-10T00:34:43.879Z,23.90
2019-06-10T00:37:14.968Z,23.90
2019-06-10T00:39:45.445Z,24.00
2019-06-10T00:42:15.895Z,23.90
2019-06-10T00:44:46.206Z,24.00
2019-06-10T00:47:16.573Z,24.00
2019-06-10T00:49:46.882Z,23.90
2019-06-10T00:52:17.251Z,23.90
2019-06-10T00:54:51.938Z,23.80
2019-06-10T00:57:22.454Z,23.70
2019-06-10T00:59:52.761Z,23.70
2019-06-10T01:02:23.118Z,23.70
2019-06-10T01:04:53.418Z,23.70
2019-06-10T01:07:23.795Z,23.60
2019-06-10T01:09:54.112Z,23.60
2019-06-10T01:12:24.502Z,23.60
2019-06-10T01:14:54.816Z,23.60
2019-06-10T01:17:25.201Z,23.60
2019-06-10T01:19:55.498Z,23.60
2019-06-10T01:22:25.874Z,23.60
2019-06-10T01:24:56.186Z,23.60
2019-06-10T01:27:26.557Z,23.60
2019-06-10T01:29:56.876Z,23.60
2019-06-10T01:32:27.252Z,23.60
2019-06-10T01:34:57.554Z,23.70
2019-06-10T01:37:27.925Z,23.60
2019-06-10T01:40:00.642Z,23.70
2019-06-10T01:42:30.670Z,23.70
2019-06-10T01:45:01.270Z,23.60
2019-06-10T01:47:32.905Z,23.60
2019-06-10T01:50:03.220Z,23.70
2019-06-10T01:52:33.582Z,23.60
2019-06-10T01:55:05.749Z,23.70
2019-06-10T01:57:36.165Z,23.70
2019-06-10T02:00:12.428Z,23.80
2019-06-10T02:02:44.701Z,23.80
2019-06-10T02:05:14.905Z,23.90
2019-06-10T02:07:45.082Z,23.90
2019-06-10T02:10:17.187Z,24.00
2019-06-10T02:12:47.471Z,24.00
2019-06-10T02:15:18.382Z,24.10
2019-06-10T02:17:50.980Z,24.10
2019-06-10T02:20:23.852Z,24.10
2019-06-10T02:22:53.492Z,24.10
2019-06-10T02:25:23.782Z,24.20
2019-06-10T02:27:54.162Z,24.10
2019-06-10T02:30:40.071Z,24.10
2019-06-10T02:32:56.468Z,24.00
2019-06-10T02:35:38.736Z,23.90
2019-06-10T02:37:58.766Z,23.80
2019-06-10T02:40:35.557Z,23.90
2019-06-10T02:43:03.502Z,23.90
2019-06-10T02:45:37.285Z,23.80
2019-06-10T02:48:05.174Z,23.70
2019-06-10T02:50:53.485Z,23.60
2019-06-10T02:53:28.484Z,23.70
2019-06-10T02:55:54.469Z,23.70
2019-06-10T02:58:33.270Z,23.60
2019-06-10T03:00:56.780Z,23.50
2019-06-10T03:03:37.265Z,23.50
2019-06-10T03:05:59.234Z,23.50
2019-06-10T03:08:32.801Z,23.50
2019-06-10T03:11:03.725Z,23.50
2019-06-10T03:13:33.524Z,23.40
2019-06-10T03:16:08.404Z,23.40
2019-06-10T03:18:38.762Z,23.40
2019-06-10T03:21:09.077Z,23.50
2019-06-10T03:23:39.442Z,23.50
2019-06-10T03:26:12.168Z,23.50
2019-06-10T03:28:42.732Z,23.50
2019-06-10T03:31:15.568Z,23.50
2019-06-10T03:33:47.784Z,23.50
2019-06-10T03:36:18.205Z,23.40
2019-06-10T03:38:48.753Z,23.40
2019-06-10T03:41:19.064Z,23.50
2019-06-10T03:43:49.426Z,23.50
2019-06-10T03:46:19.725Z,23.50
2019-06-10T03:48:52.477Z,23.50
2019-06-10T03:51:24.302Z,23.40
2019-06-10T03:53:54.007Z,23.40
2019-06-10T03:56:25.427Z,23.30
2019-06-10T03:58:56.294Z,23.20
2019-06-10T04:01:28.641Z,23.10
2019-06-10T04:03:58.612Z,23.20
2019-06-10T04:06:29.466Z,23.30
2019-06-10T04:09:02.623Z,23.40
2019-06-10T04:11:35.444Z,23.40
2019-06-10T04:14:04.437Z,23.50
2019-06-10T04:16:34.775Z,23.50
2019-06-10T04:19:05.137Z,23.60
2019-06-10T04:21:35.453Z,23.50
2019-06-10T04:24:05.833Z,23.50
2019-06-10T04:26:36.128Z,23.40
2019-06-10T04:29:07.507Z,23.50
2019-06-10T04:31:37.881Z,23.40
2019-06-10T04:34:08.304Z,23.40
2019-06-10T04:36:38.616Z,23.50
2019-06-10T04:39:08.975Z,23.40
2019-06-10T04:41:39.274Z,23.40
2019-06-10T04:44:09.728Z,23.40
2019-06-10T04:46:40.026Z,23.30
2019-06-10T04:49:12.927Z,23.20
2019-06-10T04:51:43.371Z,23.20
2019-06-10T04:54:15.083Z,23.30
2019-06-10T04:56:45.401Z,23.30
2019-06-10T04:59:15.765Z,23.30
2019-06-10T05:01:46.083Z,23.20
2019-06-10T05:04:16.454Z,23.30
2019-06-10T05:06:49.318Z,23.40
2019-06-10T05:09:21.406Z,23.40
2019-06-10T05:11:52.244Z,23.50
2019-06-10T05:14:25.285Z,23.50
2019-06-10T05:16:54.756Z,23.40
2019-06-10T05:19:26.420Z,23.40
2019-06-10T05:21:57.068Z,23.40
2019-06-10T05:24:29.539Z,23.40
2019-06-10T05:26:59.366Z,23.50
2019-06-10T05:29:31.128Z,23.40
2019-06-10T05:32:02.641Z,23.20
2019-06-10T05:34:34.697Z,23.10
2019-06-10T05:37:04.985Z,23.10
2019-06-10T05:39:35.373Z,23.10
2019-06-10T05:42:05.676Z,23.20
2019-06-10T05:44:36.070Z,23.10
2019-06-10T05:47:06.395Z,23.10
2019-06-10T05:49:36.778Z,23.30
2019-06-10T05:52:07.086Z,23.40
2019-06-10T05:54:37.464Z,23.50
2019-06-10T05:57:07.767Z,23.40
2019-06-10T05:59:38.134Z,23.50
2019-06-10T06:02:08.649Z,23.50
2019-06-10T06:04:39.014Z,23.50
2019-06-10T06:07:12.910Z,23.50
2019-06-10T06:09:43.542Z,23.60
2019-06-10T06:12:14.363Z,23.60
2019-06-10T06:14:44.884Z,23.60
2019-06-10T06:17:16.795Z,23.70
2019-06-10T06:19:47.383Z,23.80
2019-06-10T06:22:17.674Z,23.70
2019-06-10T06:24:48.033Z,23.80
2019-06-10T06:27:18.334Z,23.90
2019-06-10T06:29:48.706Z,23.90
2019-06-10T06:32:19.006Z,24.00
2019-06-10T06:34:49.389Z,24.10
2019-06-10T06:37:19.724Z,24.20
2019-06-10T06:39:52.205Z,24.20
2019-06-10T06:42:22.923Z,24.20
2019-06-10T06:44:53.464Z,24.30
2019-06-10T06:47:23.754Z,24.30
2019-06-10T06:49:54.118Z,24.30
2019-06-10T06:52:46.338Z,24.40
2019-06-10T06:54:56.348Z,24.40
2019-06-10T06:57:26.629Z,24.50
2019-06-10T06:59:56.975Z,24.50
2019-06-10T07:02:27.243Z,24.50
2019-06-10T07:04:57.751Z,24.60
2019-06-10T07:07:30.121Z,24.70
2019-06-10T07:10:03.206Z,24.80
2019-06-10T07:12:36.325Z,24.90
2019-06-10T07:15:12.180Z,24.90
2019-06-10T07:17:45.481Z,25.00
2019-06-10T07:20:15.072Z,25.00
2019-06-10T07:22:46.685Z,25.00
2019-06-10T07:25:18.318Z,25.10
2019-06-10T07:27:48.611Z,25.00
2019-06-10T07:30:18.970Z,25.10
2019-06-10T07:32:49.266Z,25.10
2019-06-10T07:35:22.055Z,25.10
2019-06-10T07:37:52.324Z,25.10
2019-06-10T07:40:22.769Z,25.10
2019-06-10T07:42:53.161Z,25.10
2019-06-10T07:45:23.497Z,25.10
2019-06-10T07:47:53.798Z,25.10
2019-06-10T07:50:24.129Z,25.20
2019-06-10T07:52:54.391Z,25.10
2019-06-10T07:55:24.726Z,25.20
2019-06-10T07:57:55.030Z,25.20
2019-06-10T08:00:25.652Z,25.20
2019-06-10T08:02:55.974Z,25.20
2019-06-10T08:05:26.343Z,25.30
2019-06-10T08:07:56.657Z,25.30
2019-06-10T08:10:27.069Z,25.40
2019-06-10T08:12:57.340Z,25.40
2019-06-10T08:15:27.724Z,25.40
2019-06-10T08:17:57.991Z,25.40
2019-06-10T08:20:45.241Z,25.50
2019-06-10T08:23:19.761Z,25.50
2019-06-10T08:25:56.460Z,25.50
2019-06-10T08:28:23.713Z,25.60
2019-06-10T08:30:54.068Z,25.70
2019-06-10T08:33:24.340Z,25.70
2019-06-10T08:35:59.540Z,25.70
2019-06-10T08:38:26.661Z,25.80
2019-06-10T08:40:56.983Z,25.90
2019-06-10T08:43:28.247Z,26.00
2019-06-10T08:45:58.581Z,26.10
2019-06-10T08:48:32.738Z,26.10
2019-06-10T08:51:03.981Z,26.10
2019-06-10T08:53:34.485Z,26.20
2019-06-10T08:56:05.047Z,26.30
2019-06-10T08:58:35.346Z,26.40
2019-06-10T09:01:05.806Z,26.50
2019-06-10T09:03:36.077Z,26.60
2019-06-10T09:06:06.417Z,26.70
2019-06-10T09:08:39.545Z,26.90
2019-06-10T09:11:08.665Z,26.90
2019-06-10T09:13:39.603Z,27.10
2019-06-10T09:16:18.972Z,27.30
2019-06-10T09:18:46.313Z,27.40
2019-06-10T09:21:15.004Z,27.50
2019-06-10T09:23:48.296Z,27.50
2019-06-10T09:26:17.258Z,27.40
2019-06-10T09:28:52.373Z,27.40
2019-06-10T09:31:19.574Z,27.40
2019-06-10T09:33:53.294Z,27.40
2019-06-10T09:36:23.554Z,27.40
2019-06-10T09:38:55.636Z,27.40
2019-06-10T09:41:36.479Z,27.40
2019-06-10T09:43:57.672Z,27.30
2019-06-10T09:46:33.060Z,27.40
2019-06-10T09:49:05.010Z,27.50
2019-06-10T09:51:35.370Z,27.50
2019-06-10T09:54:06.518Z,27.60
2019-06-10T09:56:37.490Z,27.60
2019-06-10T09:59:12.502Z,27.60
2019-06-10T10:01:47.274Z,27.70
2019-06-10T10:04:15.034Z,27.70
2019-06-10T10:06:49.566Z,27.70
2019-06-10T10:09:17.793Z,27.70
2019-06-10T10:11:55.157Z,27.80
2019-06-10T10:14:23.434Z,28.00
2019-06-10T10:16:59.908Z,28.00
2019-06-10T10:19:26.530Z,28.00
2019-06-10T10:21:58.449Z,28.00
2019-06-10T10:24:28.954Z,28.00
2019-06-10T10:27:01.883Z,28.00
2019-06-10T10:29:32.838Z,28.00
2019-06-10T10:32:03.185Z,28.00
2019-06-10T10:34:33.516Z,28.00
2019-06-10T10:37:03.860Z,28.00
2019-06-10T10:39:34.139Z,28.00
2019-06-10T10:42:04.809Z,27.90
2019-06-10T10:44:35.097Z,27.90
2019-06-10T10:47:07.053Z,27.90
2019-06-10T10:49:37.316Z,27.90
2019-06-10T10:52:07.715Z,27.90
2019-06-10T10:54:38.007Z,27.80
2019-06-10T10:57:08.362Z,27.80
2019-06-10T10:59:38.628Z,27.80
2019-06-10T11:02:08.958Z,27.80
2019-06-10T11:04:44.166Z,27.90
2019-06-10T11:07:14.228Z,27.90
2019-06-10T11:09:45.445Z,27.90
2019-06-10T11:12:17.849Z,27.90
2019-06-10T11:14:49.261Z,27.90
2019-06-10T11:17:19.658Z,27.90
2019-06-10T11:19:52.726Z,28.00
2019-06-10T11:22:23.242Z,28.00
2019-06-10T11:24:56.058Z,28.00
2019-06-10T11:27:25.718Z,28.00
2019-06-10T11:29:57.821Z,28.00
2019-06-10T11:32:27.965Z,28.00
2019-06-10T11:34:58.664Z,28.00
2019-06-10T11:37:29.208Z,28.10
2019-06-10T11:39:59.503Z,28.10
2019-06-10T11:42:29.870Z,28.10
2019-06-10T11:45:02.752Z,28.20
2019-06-10T11:47:33.044Z,28.20
2019-06-10T11:50:04.901Z,28.20
2019-06-10T11:52:35.833Z,28.20
2019-06-10T11:55:15.230Z,28.20
2019-06-10T11:57:39.306Z,28.20
2019-06-10T12:00:14.739Z,28.20
2019-06-10T12:02:43.050Z,28.30
2019-06-10T12:05:13.920Z,28.30
2019-06-10T12:07:44.275Z,28.50
2019-06-10T12:10:14.762Z,28.50
2019-06-10T12:12:45.090Z,28.50
2019-06-10T12:15:16.190Z,28.60
2019-06-10T12:17:50.816Z,28.60
2019-06-10T12:20:19.013Z,28.50
2019-06-10T12:22:49.557Z,28.60
2019-06-10T12:25:32.576Z,28.50
2019-06-10T12:27:55.813Z,28.30
2019-06-10T12:30:23.865Z,28.30
2019-06-10T12:32:57.456Z,28.30
2019-06-10T12:35:26.255Z,28.30
2019-06-10T12:37:59.510Z,28.30
2019-06-10T12:40:28.510Z,28.30
2019-06-10T12:43:00.722Z,28.20
2019-06-10T12:45:32.621Z,28.20
2019-06-10T12:48:06.276Z,28.20
2019-06-10T12:50:34.601Z,28.20
2019-06-10T12:53:07.093Z,28.10
2019-06-10T12:55:43.051Z,28.10
2019-06-10T12:58:10.351Z,28.00
2019-06-10T13:00:47.975Z,28.10
2019-06-10T13:03:18.308Z,28.00
2019-06-10T13:05:48.586Z,28.10
2019-06-10T13:08:20.532Z,28.20
2019-06-10T13:10:53.042Z,28.20
2019-06-10T13:13:22.917Z,28.20
2019-06-10T13:15:54.054Z,28.20
2019-06-10T13:18:24.396Z,28.20
2019-06-10T13:20:54.653Z,28.20
2019-06-10T13:23:31.569Z,28.20
2019-06-10T13:26:00.143Z,28.20
2019-06-10T13:28:28.808Z,28.30
2019-06-10T13:30:59.167Z,28.30
2019-06-10T13:33:29.782Z,28.40
2019-06-10T13:36:00.925Z,28.50
2019-06-10T13:38:33.237Z,28.50
2019-06-10T13:41:04.280Z,28.50
2019-06-10T13:43:34.748Z,28.50
2019-06-10T13:46:07.403Z,28.50
2019-06-10T13:48:36.989Z,28.60
2019-06-10T13:51:10.950Z,28.50
2019-06-10T13:53:39.266Z,28.40
2019-06-10T13:56:36.963Z,28.30
2019-06-10T13:58:45.045Z,28.30
2019-06-10T14:01:21.114Z,28.30
2019-06-10T14:03:45.469Z,28.40
2019-06-10T14:06:32.591Z,28.40
2019-06-10T14:08:47.733Z,28.40
2019-06-10T14:11:19.080Z,28.50
2019-06-10T14:13:49.550Z,28.60
2019-06-10T14:16:19.816Z,28.70
2019-06-10T14:18:50.140Z,28.70
2019-06-10T14:21:23.493Z,28.80
2019-06-10T14:23:52.419Z,28.80
2019-06-10T14:26:36.716Z,28.80
2019-06-10T14:28:54.669Z,28.80
2019-06-10T14:31:39.455Z,28.80
2019-06-10T14:33:56.921Z,29.00
2019-06-10T14:36:27.193Z,28.90
2019-06-10T14:38:57.526Z,28.90
2019-06-10T14:41:27.819Z,28.90
2019-06-10T14:43:59.182Z,28.90
2019-06-10T14:46:29.472Z,28.90
2019-06-10T14:49:02.202Z,29.00
2019-06-10T14:51:32.586Z,29.10
2019-06-10T14:54:03.248Z,29.10
2019-06-10T14:56:49.305Z,29.10
2019-06-10T14:59:07.611Z,29.20
2019-06-10T15:01:37.879Z,29.20
2019-06-10T15:04:08.242Z,29.20
2019-06-10T15:06:38.538Z,29.20
2019-06-10T15:09:09.466Z,29.20
2019-06-10T15:11:39.756Z,29.10
2019-06-10T15:14:12.850Z,29.10
2019-06-10T15:16:43.752Z,29.10
2019-06-10T15:19:21.871Z,29.10
2019-06-10T15:21:46.320Z,29.20
2019-06-10T15:24:16.627Z,29.20
2019-06-10T15:26:46.896Z,29.30
2019-06-10T15:29:18.650Z,29.20
2019-06-10T15:32:05.155Z,29.20
2019-06-10T15:34:21.158Z,29.20
2019-06-10T15:36:52.782Z,29.20
2019-06-10T15:39:24.146Z,29.20
2019-06-10T15:41:54.713Z,29.20
2019-06-10T15:44:47.914Z,29.10
2019-06-10T15:46:56.937Z,29.20
2019-06-10T15:49:27.265Z,29.10
2019-06-10T15:51:57.532Z,29.20
2019-06-10T15:54:27.865Z,29.10
2019-06-10T15:56:58.138Z,29.20
2019-06-10T15:59:28.465Z,29.10
2019-06-10T16:01:58.734Z,29.10
2019-06-10T16:04:29.955Z,29.10
2019-06-10T16:07:02.608Z,29.10
2019-06-10T16:09:32.994Z,29.10
2019-06-10T16:12:03.298Z,29.10
2019-06-10T16:14:35.446Z,29.10
2019-06-10T16:17:05.716Z,29.10
2019-06-10T16:19:37.082Z,29.10
2019-06-10T16:22:07.662Z,29.10
2019-06-10T16:24:38.021Z,29.10
2019-06-10T17:38:15.683Z,28.20
2019-06-10T17:40:48.786Z,28.20
2019-06-10T17:43:19.159Z,28.10
2019-06-10T17:45:49.472Z,28.10
2019-06-10T17:48:22.296Z,28.20
2019-06-10T17:50:56.327Z,28.20
2019-06-10T17:53:28.244Z,28.20
2019-06-10T17:55:58.565Z,28.10
2019-06-10T17:58:40.565Z,28.20
2019-06-10T18:01:03.714Z,28.20
2019-06-10T18:03:35.829Z,28.20
2019-06-10T18:06:07.042Z,28.10
2019-06-10T18:08:40.581Z,28.10
2019-06-10T18:11:09.310Z,28.10
2019-06-10T18:13:39.606Z,28.10
2019-06-10T18:16:09.930Z,28.10
2019-06-10T18:18:42.421Z,28.10
2019-06-10T18:21:12.684Z,28.10
2019-06-10T18:23:43.652Z,28.00
2019-06-10T18:26:14.058Z,28.00
2019-06-10T18:29:00.896Z,27.90
2019-06-10T18:31:18.616Z,27.90
2019-06-10T18:33:49.690Z,27.90
2019-06-10T18:36:20.015Z,27.80
2019-06-10T18:38:52.522Z,27.80
2019-06-10T18:41:22.443Z,27.80
2019-06-10T18:43:52.928Z,27.80
2019-06-10T18:46:23.967Z,27.80
2019-06-10T18:48:54.327Z,27.70
2019-06-10T18:51:24.595Z,27.70
2019-06-10T18:53:54.890Z,27.70
2019-06-10T18:56:25.250Z,27.60
2019-06-10T18:58:56.505Z,27.60
2019-06-10T19:01:28.314Z,27.60
2019-06-10T19:03:58.672Z,27.70
2019-06-10T19:06:31.287Z,27.70
2019-06-10T19:09:03.240Z,27.80
2019-06-10T19:11:36.840Z,27.80
2019-06-10T19:14:07.557Z,27.80
2019-06-10T19:16:38.573Z,27.80
2019-06-10T19:19:12.518Z,27.80
2019-06-10T19:21:43.883Z,27.80
2019-06-10T19:24:14.326Z,27.80
2019-06-10T19:26:45.301Z,27.80
2019-06-10T19:29:29.822Z,27.80
2019-06-10T19:31:47.688Z,27.80
2019-06-10T19:34:17.922Z,27.80
2019-06-10T19:36:48.282Z,27.80
2019-06-10T19:39:18.581Z,27.80
2019-06-10T19:41:48.980Z,27.80
2019-06-10T19:44:19.326Z,27.80
2019-06-10T19:46:52.106Z,27.70
2019-06-10T19:49:22.052Z,27.70
2019-06-10T19:51:52.712Z,27.60
2019-06-10T19:54:23.041Z,27.50
2019-06-10T19:56:53.398Z,27.40
2019-06-10T19:59:23.659Z,27.40
2019-06-10T20:01:54.492Z,27.30
2019-06-10T20:04:24.753Z,27.30
2019-06-10T20:06:55.080Z,27.30
2019-06-10T20:09:25.374Z,27.30
2019-06-10T20:11:55.717Z,27.40
2019-06-10T20:14:25.989Z,27.50
2019-06-10T20:16:56.333Z,27.50
2019-06-10T20:19:26.613Z,27.50
2019-06-10T20:21:56.979Z,27.50
2019-06-10T20:24:27.237Z,27.40
2019-06-10T20:26:57.562Z,27.50
2019-06-10T20:29:27.826Z,27.50
2019-06-10T20:31:58.146Z,27.50
2019-06-10T20:34:28.553Z,27.50
2019-06-10T20:36:58.882Z,27.40
2019-06-10T20:39:29.626Z,27.40
2019-06-10T20:42:02.534Z,27.40
2019-06-10T20:44:32.599Z,27.40
2019-06-10T20:47:03.021Z,27.40
2019-06-10T20:49:33.309Z,27.40
2019-06-10T20:52:10.788Z,27.50
2019-06-10T20:54:35.842Z,27.50
2019-06-10T20:57:06.181Z,27.50
2019-06-10T20:59:37.446Z,27.50
2019-06-10T21:02:08.706Z,27.50
2019-06-10T21:04:39.053Z,27.40
2019-06-10T21:07:12.567Z,27.50
2019-06-10T21:09:44.399Z,27.40
2019-06-10T21:12:15.277Z,27.60
2019-06-10T21:14:46.881Z,27.60
2019-06-10T21:17:17.482Z,27.60
2019-06-10T21:19:49.131Z,27.50
2019-06-10T21:22:19.589Z,27.50
2019-06-10T21:24:51.339Z,27.50
2019-06-10T21:27:23.811Z,27.50
2019-06-10T21:29:54.963Z,27.50
2019-06-10T21:32:26.298Z,27.50
2019-06-10T21:34:56.574Z,27.50
2019-06-10T21:37:32.000Z,27.50
2019-06-10T21:40:03.350Z,27.50
2019-06-10T21:42:33.930Z,27.50
2019-06-10T21:45:05.787Z,27.50
2019-06-10T21:47:36.119Z,27.50
2019-06-10T21:50:08.652Z,27.40
2019-06-10T21:52:38.981Z,27.40
2019-06-10T21:55:09.222Z,27.40
2019-06-10T21:57:39.587Z,27.40
2019-06-10T22:00:14.053Z,27.40
2019-06-10T22:02:47.083Z,27.40
2019-06-10T22:05:18.090Z,27.40
2019-06-10T22:07:49.595Z,27.30
2019-06-10T22:10:19.914Z,27.30
2019-06-10T22:12:52.730Z,27.30
2019-06-10T22:15:22.610Z,27.30
2019-06-10T22:17:54.796Z,27.30
2019-06-10T22:20:26.185Z,27.20
2019-06-10T22:22:56.520Z,27.30
2019-06-10T22:25:26.776Z,27.30
2019-06-10T22:27:57.105Z,27.20
2019-06-10T22:30:27.373Z,27.30
2019-06-10T22:32:58.010Z,27.30
2019-06-10T22:35:28.366Z,27.30
2019-06-10T22:37:58.744Z,27.30
2019-06-10T22:40:29.412Z,27.40
2019-06-10T22:42:59.800Z,27.30
2019-06-10T22:45:32.134Z,27.30
2019-06-10T22:48:03.044Z,27.20
2019-06-10T22:50:33.550Z,27.10
2019-06-10T22:53:04.171Z,27.10
2019-06-10T22:55:34.522Z,27.10
2019-06-10T22:58:06.403Z,27.10
2019-06-10T23:00:36.730Z,27.00
2019-06-10T23:03:07.090Z,27.00
2019-06-10T23:05:37.401Z,27.00
2019-06-10T23:08:07.750Z,27.00
2019-06-10T23:10:38.042Z,27.00
2019-06-10T23:13:08.434Z,26.90
2019-06-10T23:15:38.749Z,26.90
2019-06-10T23:18:09.098Z,26.90
2019-06-10T23:20:39.421Z,27.00
2019-06-10T23:23:09.770Z,27.00
2019-06-10T23:25:42.956Z,27.00
2019-06-10T23:28:13.267Z,27.00
2019-06-10T23:30:43.622Z,27.00
2019-06-10T23:33:13.950Z,27.00
2019-06-10T23:35:46.987Z,27.00
2019-06-10T23:38:16.246Z,27.00
2019-06-10T23:40:46.553Z,26.90
2019-06-10T23:43:16.932Z,27.00
2019-06-10T23:45:47.214Z,26.90
2019-06-10T23:48:17.566Z,26.90
2019-06-10T23:50:47.857Z,26.90
2019-06-10T23:53:18.218Z,26.80
2019-06-10T23:55:48.514Z,26.80
2019-06-10T23:58:21.953Z,26.80
